This is the latest recevied weather packets stored in our database for station/object KA1AL. If no packets are shown the sender has not sent any weather packets the latest 1 day(s).
| Time | Temp. | Humidity | Pressure | Rain* | Wind** | Luminosity | Snow |
|---|---|---|---|---|---|---|---|
| 1778018152 | 20.56° C | 63% | 1002.5 hPa | 0 mm | 4.47 m/s, 185° | 32 W/m² | - |
| 1778017849 | 21.11° C | 62% | 1002.2 hPa | 0 mm | 2.24 m/s, 192° | 58 W/m² | - |
| 1778017547 | 21.11° C | 62% | 1002.4 hPa | 0 mm | 5.36 m/s, 189° | 46 W/m² | - |
| 1778017244 | 21.11° C | 62% | 1002 hPa | 0 mm | 1.79 m/s, 210° | 67 W/m² | - |
| 1778016942 | 21.67° C | 61% | 1002.2 hPa | 0 mm | 5.36 m/s, 254° | 90 W/m² | - |
| 1778016638 | 21.67° C | 60% | 1002.1 hPa | 0 mm | 4.47 m/s, 240° | 127 W/m² | - |
| 1778016334 | 21.67° C | 60% | 1002 hPa | 0 mm | 4.47 m/s, 248° | 241 W/m² | - |
| 1778016032 | 21.67° C | 61% | 1002 hPa | 0 mm | 4.92 m/s, 236° | 118 W/m² | - |
| 1778015729 | 21.67° C | 61% | 1002 hPa | 0 mm | 3.58 m/s, 159° | 143 W/m² | - |
| 1778015425 | 21.67° C | 61% | 1001.9 hPa | 0 mm | 4.02 m/s, 184° | 142 W/m² | - |
| 1778015122 | 21.67° C | 61% | 1001.9 hPa | 0 mm | 2.24 m/s, 263° | 115 W/m² | - |
| 1778014819 | 21.67° C | 60% | 1002 hPa | 0 mm | 5.81 m/s, 169° | 150 W/m² | - |
| 1778014517 | 22.22° C | 59% | 1001.6 hPa | 0 mm | 4.47 m/s, 173° | 149 W/m² | - |
| 1778014214 | 22.22° C | 59% | 1001.8 hPa | 0 mm | 4.02 m/s, 225° | 140 W/m² | - |
| 1778013912 | 22.78° C | 59% | 1001.8 hPa | 0 mm | 4.02 m/s, 193° | 173 W/m² | - |
| 1778013609 | 22.22° C | 58% | 1001.9 hPa | 0 mm | 3.58 m/s, 243° | 249 W/m² | - |
| 1778013305 | 22.22° C | 59% | 1002.1 hPa | 0 mm | 6.26 m/s, 201° | 176 W/m² | - |
| 1778013001 | 22.78° C | 58% | 1002.1 hPa | 0 mm | 5.81 m/s, 220° | 180 W/m² | - |
| 1778012698 | 22.22° C | 58% | 1002 hPa | 0 mm | 9.39 m/s, 250° | 229 W/m² | - |
| 1778012394 | 22.22° C | 58% | 1001.9 hPa | 0 mm | 4.47 m/s, 161° | 133 W/m² | - |
| 1778012091 | 22.78° C | 57% | 1002 hPa | 0 mm | 7.6 m/s, 185° | 147 W/m² | - |
| 1778011789 | 22.78° C | 57% | 1001.8 hPa | 0 mm | 7.6 m/s, 244° | 228 W/m² | - |
| 1778011487 | 22.78° C | 57% | 1001.8 hPa | 0 mm | 2.68 m/s, 241° | 157 W/m² | - |
| 1778011182 | 22.78° C | 59% | 1002.1 hPa | 0 mm | 4.92 m/s, 233° | 235 W/m² | - |
| 1778010879 | 22.78° C | 57% | 1001.9 hPa | 0 mm | 6.71 m/s, 208° | 195 W/m² | - |
* Rain latest hour (hover to see other rain measurements)
** Current wind speed in m/s (hover to see current wind gust speed)